• Join FlightAware (Why Join?)
  • Login
  • US Flag 
06:17PM EDT


 

Airport Tracker/Info


-or-


 

Live Flight TrackerFlight Track Log ✈ UAL4849 ✈ 17-Mar-2014 ✈ KEWR - KSYR

Flight Track Log - Related Links

Times and Time Zones

All times are in EDT time to prevent confusion due to time zone crossing. See the UAL4849 flight status page for this flight to view local times or setup timezone preferences in your user account.

Time Position Orientation Groundspeed Altitude Reporting Facility
EDT Latitude Longitude Course Direction KTS MPH feet Rate Location/Type
08:53AM 41.1139 -74.4941 330° Northwest  Level Estimated
08:54AM 41.1607 -74.5305 330° Northwest  Level Estimated
08:55AM 41.2074 -74.5670 330° Northwest  Level Estimated
08:56AM 41.2542 -74.6035 330° Northwest  Level Estimated
08:57AM 41.3009 -74.6401 330° Northwest  Level Estimated
08:58AM 41.3476 -74.6767 330° Northwest  Level Estimated
08:59AM 41.3943 -74.7134 330° Northwest  Level Estimated
09:00AM 41.4410 -74.7501 329° Northwest  Level Estimated
09:01AM 41.4877 -74.7869 329° Northwest  Level Estimated
09:02AM 41.5344 -74.8237 329° Northwest  Level Estimated
09:03AM 41.5811 -74.8606 329° Northwest  Level Estimated
09:04AM 41.6277 -74.8976 329° Northwest  Level Estimated
09:05AM 41.6744 -74.9345 329° Northwest  Level Estimated
09:06AM 41.7210 -74.9716 329° Northwest  Level Estimated
09:07AM 41.7676 -75.0087 329° Northwest  Level Estimated
09:08AM 41.8142 -75.0459 329° Northwest  Level Estimated
09:09AM 41.8608 -75.0831 329° Northwest  Level Estimated
09:10AM 41.9074 -75.1203 329° Northwest  Level Estimated
09:11AM 41.9539 -75.1576 329° Northwest  Level Estimated
09:12AM 42.0005 -75.1950 329° Northwest  Level Estimated
09:13AM 42.0471 -75.2324 329° Northwest  Level Estimated
09:14AM 42.0936 -75.2699 329° Northwest  Level Estimated
09:15AM 42.1401 -75.3075 329° Northwest  Level Estimated
09:16AM 42.1866 -75.3451 329° Northwest  Level Estimated
09:17AM 42.2331 -75.3827 329° Northwest  Level Estimated
09:18AM 42.2796 -75.4204 329° Northwest  Level Estimated
09:19AM 42.3260 -75.4582 329° Northwest  Level Estimated
09:20AM 42.3725 -75.4960 329° Northwest  Level Estimated
09:21AM 42.4190 -75.5339 329° Northwest  Level Estimated
09:22AM 42.4654 -75.5718 329° Northwest  Level Estimated
09:23AM 42.5118 -75.6098 329° Northwest  Level Estimated
09:24AM 42.5582 -75.6478 329° Northwest  Level Estimated
09:25AM 42.6046 -75.6859 329° Northwest  Level Estimated
09:26AM 42.6510 -75.7241 329° Northwest  Level Estimated
09:27AM 42.6974 -75.7623 329° Northwest  Level Estimated
09:28AM 42.7437 -75.8005 329° Northwest  Level Estimated
09:29AM 42.7901 -75.8389 329° Northwest  Level Estimated
09:30AM 42.8364 -75.8773 329° Northwest  Level Estimated
09:31AM 42.8827 -75.9157 329° Northwest  Level Estimated
09:32AM 42.9290 -75.9542 329° Northwest  Level Estimated
09:33AM 42.9753 -75.9927 329° Northwest  Level Estimated
09:34AM 43.0216 -76.0313 329° Northwest  Level Estimated
09:35AM 43.0679 -76.0700 329° Northwest  Level Estimated
09:36AM 43.1112 -76.1063 329° Northwest  Level Estimated
09:37AM 43.1112 -76.1063 North  Level Estimated
09:38AM 43.1112 -76.1063 North  Level Estimated
09:39AM 43.1112 -76.1063 North  Level Estimated
09:40AM 43.1112 -76.1063 North  Level Estimated
09:41AM 43.1112 -76.1063 North  Level Estimated
09:42AM 43.1112 -76.1063 North  Level Estimated
09:43AM 43.1112 -76.1063 North  Level Estimated
09:44AM 43.1112 -76.1063 North  Level Estimated
09:45AM 43.1112 -76.1063 North  Level Estimated
09:46AM 43.1112 -76.1063 North  Level Estimated
09:47AM 43.1112 -76.1063 North  Level Estimated